SBSP Airport Information

Runway Information
Runway 17L Length 4708 ft width 148 ft
Elevation 0 ft Threshold 0 ft Heading 0
Runway 35R Length 4708 ft Width 148 ft
Elevation 0 ft Threshold 0 ft Heading 0
Runway 17R Length 6365 ft width 148 ft
Elevation 0 ft Threshold 0 ft Heading 0
Runway 35L Length 6365 ft Width 148 ft
Elevation 0 ft Threshold 0 ft Heading 0
Airport Frequencies
Type APP Name SAO PAULO Frequency 119.8 MHZ
Type ATIS Name ATIS Frequency 127.65 MHZ
Type CLD Name CLNC DEL Frequency 120.6 MHZ
Type GND Name GND Frequency 121.9 MHZ
Type TWR Name SAO PAULO Frequency 127.15 MHZ
Airport Navaids
Type VOR-DME Name Congonhas Frequency 116900 KHZ
Type NDB Name Diadema Frequency 200 KHZ
Type NDB Name Mada Frequency 290 KHZ
Type NDB Name Metro Frequency 330 KHZ
Type NDB Name Sao Paulo Frequency 250 KHZ
Airport Weather Information & NOTAM
ADDS - METARS form results

(0833 UTC 17 June 2021)
Data provider http://aviationweather.gov/metar/data/
 
METAR text: SBSP 170827Z AUTO 17007KT 9999 // SCT005/// BKN007/// OVC010/// 13/12 Q1022
Conditions at: SBSP (SAO PAULO/CONGON, BR) observed 0827 UTC 17 June 2021
Temperature: 13.0°C (55°F)
Dewpoint: 12.0°C (54°F) [RH = 94%]
Pressure (altimeter): 30.18 inches Hg (1022.0 mb)
Winds: from the S (170 degrees) at 8 MPH (7 knots; 3.6 m/s)
Visibility: 6 or more miles (10+ km)
Ceiling: 700 feet AGL
Clouds: scattered clouds at 500 feet AGL
broken clouds at 700 feet AGL
overcast cloud deck at 1000 feet AGL
Weather: no significant weather observed at this time

METAR text: SBSP 170826Z AUTO 17007KT 9999 // SCT005/// SCT007/// OVC011/// 13/12 Q1022
Conditions at: SBSP (SAO PAULO/CONGON, BR) observed 0826 UTC 17 June 2021
Temperature: 13.0°C (55°F)
Dewpoint: 12.0°C (54°F) [RH = 94%]
Pressure (altimeter): 30.18 inches Hg (1022.0 mb)
Winds: from the S (170 degrees) at 8 MPH (7 knots; 3.6 m/s)
Visibility: 6 or more miles (10+ km)
Ceiling: 1100 feet AGL
Clouds: scattered clouds at 500 feet AGL
scattered clouds at 700 feet AGL
overcast cloud deck at 1100 feet AGL
Weather: no significant weather observed at this time

METAR text: SBSP 170816Z AUTO 18007KT 9999 // BKN005/// BKN007/// OVC014/// 13/12 Q1022
Conditions at: SBSP (SAO PAULO/CONGON, BR) observed 0816 UTC 17 June 2021
Temperature: 13.0°C (55°F)
Dewpoint: 12.0°C (54°F) [RH = 94%]
Pressure (altimeter): 30.18 inches Hg (1022.0 mb)
Winds: from the S (180 degrees) at 8 MPH (7 knots; 3.6 m/s)
Visibility: 6 or more miles (10+ km)
Ceiling: 500 feet AGL
Clouds: broken clouds at 500 feet AGL
broken clouds at 700 feet AGL
overcast cloud deck at 1400 feet AGL
Weather: no significant weather observed at this time

METAR text: SBSP 170800Z AUTO 18006KT 9000 // OVC004/// 13/12 Q1022
Conditions at: SBSP (SAO PAULO/CONGON, BR) observed 0800 UTC 17 June 2021
Temperature: 13.0°C (55°F)
Dewpoint: 12.0°C (54°F) [RH = 94%]
Pressure (altimeter): 30.18 inches Hg (1022.0 mb)
Winds: from the S (180 degrees) at 7 MPH (6 knots; 3.1 m/s)
Visibility: 6 miles ( 9 km)
Ceiling: 400 feet AGL
Clouds: overcast cloud deck at 400 feet AGL
Weather: no significant weather observed at this time

METAR text: SBSP 170752Z AUTO 18006KT 9000 // OVC004/// 13/12 Q1022
Conditions at: SBSP (SAO PAULO/CONGON, BR) observed 0752 UTC 17 June 2021
Temperature: 13.0°C (55°F)
Dewpoint: 12.0°C (54°F) [RH = 94%]
Pressure (altimeter): 30.18 inches Hg (1022.0 mb)
Winds: from the S (180 degrees) at 7 MPH (6 knots; 3.1 m/s)
Visibility: 6 miles ( 9 km)
Ceiling: 400 feet AGL
Clouds: overcast cloud deck at 400 feet AGL
Weather: no significant weather observed at this time

METAR text: SBSP 170741Z AUTO 18006KT 4600 // BKN004/// OVC010/// 13/12 Q1022
Conditions at: SBSP (SAO PAULO/CONGON, BR) observed 0741 UTC 17 June 2021
Temperature: 13.0°C (55°F)
Dewpoint: 12.0°C (54°F) [RH = 94%]
Pressure (altimeter): 30.18 inches Hg (1022.0 mb)
Winds: from the S (180 degrees) at 7 MPH (6 knots; 3.1 m/s)
Visibility: 2.86 miles (4.60 km)
Ceiling: 400 feet AGL
Clouds: broken clouds at 400 feet AGL
overcast cloud deck at 1000 feet AGL
Weather: no significant weather observed at this time

METAR text: SBSP 170740Z AUTO 18006KT 4300 // SCT003/// BKN005/// OVC009/// 13/12 Q1022
Conditions at: SBSP (SAO PAULO/CONGON, BR) observed 0740 UTC 17 June 2021
Temperature: 13.0°C (55°F)
Dewpoint: 12.0°C (54°F) [RH = 94%]
Pressure (altimeter): 30.18 inches Hg (1022.0 mb)
Winds: from the S (180 degrees) at 7 MPH (6 knots; 3.1 m/s)
Visibility: 2.67 miles (4.30 km)
Ceiling: 500 feet AGL
Clouds: scattered clouds at 300 feet AGL
broken clouds at 500 feet AGL
overcast cloud deck at 900 feet AGL
Weather: no significant weather observed at this time

METAR text: SBSP 170739Z AUTO 17006KT 4200 // SCT003/// BKN005/// OVC010/// 13/12 Q1022
Conditions at: SBSP (SAO PAULO/CONGON, BR) observed 0739 UTC 17 June 2021
Temperature: 13.0°C (55°F)
Dewpoint: 12.0°C (54°F) [RH = 94%]
Pressure (altimeter): 30.18 inches Hg (1022.0 mb)
Winds: from the S (170 degrees) at 7 MPH (6 knots; 3.1 m/s)
Visibility: 2.61 miles (4.20 km)
Ceiling: 500 feet AGL
Clouds: scattered clouds at 300 feet AGL
broken clouds at 500 feet AGL
overcast cloud deck at 1000 feet AGL
Weather: no significant weather observed at this time

Forecast for: SBSP (SAO PAULO/CONGON, BR)
Text: TAF SBSP 170700Z 1712/1724 16007KT 7000 BKN006 TX17/1717Z TN13/1724Z
Forecast period: 1200 to 1300 UTC 17 June 2021
Forecast type: FROM: standard forecast or significant change
Winds: from the SSE (160 degrees) at 8 MPH (7 knots; 3.6 m/s)
Visibility: 4 miles (7 km)
Ceiling: 600 feet AGL
Clouds: broken clouds at 600 feet AGL
Weather: no significant weather forecast for this period
Text: BECMG 1713/1715 9999 BKN020
Forecast period: 1300 to 1900 UTC 17 June 2021
Forecast type: BECOMING: Conditions expected to become as follows by 1500 UTC 17 June 2021
Winds: from the SSE (160 degrees) at 8 MPH (7 knots; 3.6 m/s)
Visibility: 6 or more miles (10+ km)
Ceiling: 2000 feet AGL
Clouds: broken clouds at 2000 feet AGL
Weather: no significant weather forecast for this period
Text: BECMG 1719/1721 8000 BKN012 RMK PGH
Forecast period: 1900 UTC 17 June 2021 to 0000 UTC 18 June 2021
Forecast type: BECOMING: Conditions expected to become as follows by 2100 UTC 17 June 2021
Winds: from the SSE (160 degrees) at 8 MPH (7 knots; 3.6 m/s)
Visibility: 5 miles (8 km)
Ceiling: 1200 feet AGL
Clouds: broken clouds at 1200 feet AGL
Weather: no significant weather forecast for this period